sensor_id;sensor_type;location;lat;lon;timestamp;pressure;altitude;pressure_sealevel;temperature;humidity
18323;BME280;9287;49.456;11.064;2024-02-14T00:01:02;98625.13;;;2.71;100.00
18323;BME280;9287;49.456;11.064;2024-02-14T00:03:30;98632.94;;;2.72;100.00
18323;BME280;9287;49.456;11.064;2024-02-14T00:05:58;98623.19;;;2.76;100.00
18323;BME280;9287;49.456;11.064;2024-02-14T00:08:26;98636.72;;;2.71;100.00
18323;BME280;9287;49.456;11.064;2024-02-14T00:10:53;98634.41;;;2.84;100.00
18323;BME280;9287;49.456;11.064;2024-02-14T00:13:22;98636.28;;;2.88;100.00
18323;BME280;9287;49.456;11.064;2024-02-14T00:15:51;98635.91;;;2.95;100.00
18323;BME280;9287;49.456;11.064;2024-02-14T00:18:19;98631.69;;;2.89;100.00
18323;BME280;9287;49.456;11.064;2024-02-14T00:20:49;98637.06;;;2.89;100.00
18323;BME280;9287;49.456;11.064;2024-02-14T00:23:17;98632.81;;;2.83;100.00
18323;BME280;9287;49.456;11.064;2024-02-14T00:25:45;98640.63;;;2.84;100.00
18323;BME280;9287;49.456;11.064;2024-02-14T00:28:13;98635.91;;;2.95;100.00
18323;BME280;9287;49.456;11.064;2024-02-14T00:30:42;98629.94;;;2.98;100.00
18323;BME280;9287;49.456;11.064;2024-02-14T00:33:10;98628.56;;;3.00;100.00
18323;BME280;9287;49.456;11.064;2024-02-14T00:35:38;98635.47;;;2.88;100.00
18323;BME280;9287;49.456;11.064;2024-02-14T00:38:06;98635.69;;;2.91;100.00
18323;BME280;9287;49.456;11.064;2024-02-14T00:40:34;98633.28;;;2.90;100.00
18323;BME280;9287;49.456;11.064;2024-02-14T00:43:03;98633.28;;;2.90;100.00
18323;BME280;9287;49.456;11.064;2024-02-14T00:45:31;98628.94;;;2.94;100.00
18323;BME280;9287;49.456;11.064;2024-02-14T00:48:01;98629.59;;;2.80;100.00
18323;BME280;9287;49.456;11.064;2024-02-14T00:50:30;98633.16;;;2.76;100.00
18323;BME280;9287;49.456;11.064;2024-02-14T00:53:00;98622.53;;;2.85;100.00
18323;BME280;9287;49.456;11.064;2024-02-14T00:55:27;98638.13;;;2.93;100.00
18323;BME280;9287;49.456;11.064;2024-02-14T00:57:55;98631.13;;;2.92;100.00
18323;BME280;9287;49.456;11.064;2024-02-14T01:00:23;98634.34;;;2.94;100.00
18323;BME280;9287;49.456;11.064;2024-02-14T01:02:52;98638.50;;;3.05;100.00
18323;BME280;9287;49.456;11.064;2024-02-14T01:05:21;98641.31;;;2.95;100.00
18323;BME280;9287;49.456;11.064;2024-02-14T01:07:49;98645.69;;;2.91;100.00
18323;BME280;9287;49.456;11.064;2024-02-14T01:10:17;98639.72;;;2.94;100.00
18323;BME280;9287;49.456;11.064;2024-02-14T01:12:45;98639.25;;;2.87;100.00
18323;BME280;9287;49.456;11.064;2024-02-14T01:15:13;98640.28;;;2.91;100.00
18323;BME280;9287;49.456;11.064;2024-02-14T01:17:41;98636.50;;;2.92;100.00
18323;BME280;9287;49.456;11.064;2024-02-14T01:20:09;98630.97;;;3.02;100.00
18323;BME280;9287;49.456;11.064;2024-02-14T01:22:39;98639.03;;;3.07;100.00
18323;BME280;9287;49.456;11.064;2024-02-14T01:25:08;98636.59;;;2.82;100.00
18323;BME280;9287;49.456;11.064;2024-02-14T01:27:36;98637.06;;;2.89;100.00
18323;BME280;9287;49.456;11.064;2024-02-14T01:30:05;98638.13;;;2.93;100.00
18323;BME280;9287;49.456;11.064;2024-02-14T01:32:33;98635.56;;;3.01;100.00
18323;BME280;9287;49.456;11.064;2024-02-14T01:35:01;98635.81;;;3.05;100.00
18323;BME280;9287;49.456;11.064;2024-02-14T01:37:30;98644.41;;;2.83;100.00
18323;BME280;9287;49.456;11.064;2024-02-14T01:39:59;98638.91;;;2.93;100.00
18323;BME280;9287;49.456;11.064;2024-02-14T01:42:27;98635.13;;;2.94;100.00
18323;BME280;9287;49.456;11.064;2024-02-14T01:44:55;98633.97;;;3.00;100.00
18323;BME280;9287;49.456;11.064;2024-02-14T01:47:23;98629.75;;;2.94;100.00
18323;BME280;9287;49.456;11.064;2024-02-14T01:49:51;98632.13;;;2.96;100.00
18323;BME280;9287;49.456;11.064;2024-02-14T01:52:19;98626.72;;;2.96;100.00
18323;BME280;9287;49.456;11.064;2024-02-14T01:54:48;98626.63;;;2.82;100.00
18323;BME280;9287;49.456;11.064;2024-02-14T01:57:18;98626.28;;;2.89;100.00
18323;BME280;9287;49.456;11.064;2024-02-14T01:59:46;98625.72;;;2.92;100.00
18323;BME280;9287;49.456;11.064;2024-02-14T02:02:15;98619.97;;;2.74;100.00
18323;BME280;9287;49.456;11.064;2024-02-14T02:04:43;98623.28;;;2.66;100.00
18323;BME280;9287;49.456;11.064;2024-02-14T02:07:11;98621.56;;;2.75;100.00
18323;BME280;9287;49.456;11.064;2024-02-14T02:09:38;98609.63;;;2.82;100.00
18323;BME280;9287;49.456;11.064;2024-02-14T02:12:06;98608.00;;;2.80;100.00
18323;BME280;9287;49.456;11.064;2024-02-14T02:14:36;98608.69;;;2.67;100.00
18323;BME280;9287;49.456;11.064;2024-02-14T02:17:04;98611.91;;;2.69;100.00
18323;BME280;9287;49.456;11.064;2024-02-14T02:19:34;98603.09;;;2.88;100.00
18323;BME280;9287;49.456;11.064;2024-02-14T02:22:03;98602.63;;;2.80;100.00
18323;BME280;9287;49.456;11.064;2024-02-14T02:24:32;98606.06;;;2.86;100.00
18323;BME280;9287;49.456;11.064;2024-02-14T02:27:00;98606.59;;;2.88;100.00
18323;BME280;9287;49.456;11.064;2024-02-14T02:29:28;98598.75;;;2.92;100.00
18323;BME280;9287;49.456;11.064;2024-02-14T02:31:56;98595.53;;;2.90;100.00
18323;BME280;9287;49.456;11.064;2024-02-14T02:34:23;98596.63;;;2.89;100.00
18323;BME280;9287;49.456;11.064;2024-02-14T02:36:52;98602.41;;;3.01;100.00
18323;BME280;9287;49.456;11.064;2024-02-14T02:39:20;98595.97;;;2.97;100.00
18323;BME280;9287;49.456;11.064;2024-02-14T02:41:49;98601.25;;;3.07;100.00
18323;BME280;9287;49.456;11.064;2024-02-14T02:44:17;98598.47;;;3.12;100.00
18323;BME280;9287;49.456;11.064;2024-02-14T02:46:45;98605.94;;;3.20;100.00
18323;BME280;9287;49.456;11.064;2024-02-14T02:49:13;98595.94;;;3.21;100.00
18323;BME280;9287;49.456;11.064;2024-02-14T02:51:41;98597.91;;;3.15;100.00
18323;BME280;9287;49.456;11.064;2024-02-14T02:54:09;98595.94;;;3.21;100.00
18323;BME280;9287;49.456;11.064;2024-02-14T02:56:37;98594.94;;;2.93;100.00
18323;BME280;9287;49.456;11.064;2024-02-14T02:59:08;98595.97;;;2.97;100.00
18323;BME280;9287;49.456;11.064;2024-02-14T03:01:36;98597.56;;;2.98;100.00
18323;BME280;9287;49.456;11.064;2024-02-14T03:04:04;98593.50;;;3.00;100.00
18323;BME280;9287;49.456;11.064;2024-02-14T03:06:32;98596.09;;;2.87;100.00
18323;BME280;9287;49.456;11.064;2024-02-14T03:09:00;98591.59;;;3.01;100.00
18323;BME280;9287;49.456;11.064;2024-02-14T03:11:28;98593.91;;;2.89;100.00
18323;BME280;9287;49.456;11.064;2024-02-14T03:13:55;98597.69;;;2.88;100.00
18323;BME280;9287;49.456;11.064;2024-02-14T03:16:25;98596.53;;;2.70;100.00
18323;BME280;9287;49.456;11.064;2024-02-14T03:18:53;98586.44;;;2.80;100.00
18323;BME280;9287;49.456;11.064;2024-02-14T03:21:21;98582.56;;;2.92;100.00
18323;BME280;9287;49.456;11.064;2024-02-14T03:23:49;98587.34;;;2.95;100.00
18323;BME280;9287;49.456;11.064;2024-02-14T03:26:17;98586.44;;;2.80;100.00
18323;BME280;9287;49.456;11.064;2024-02-14T03:28:45;98581.63;;;2.77;100.00
18323;BME280;9287;49.456;11.064;2024-02-14T03:31:12;98585.88;;;2.84;100.00
18323;BME280;9287;49.456;11.064;2024-02-14T03:33:43;98578.31;;;2.86;100.00
18323;BME280;9287;49.456;11.064;2024-02-14T03:36:11;98587.47;;;2.85;100.00
18323;BME280;9287;49.456;11.064;2024-02-14T03:38:39;98584.16;;;2.93;100.00
18323;BME280;9287;49.456;11.064;2024-02-14T03:41:08;98591.88;;;2.99;100.00
18323;BME280;9287;49.456;11.064;2024-02-14T03:43:35;98586.78;;;2.98;100.00
18323;BME280;9287;49.456;11.064;2024-02-14T03:46:03;98587.94;;;2.92;100.00
18323;BME280;9287;49.456;11.064;2024-02-14T03:48:31;98587.34;;;2.95;100.00
18323;BME280;9287;49.456;11.064;2024-02-14T03:51:01;98587.44;;;2.90;100.00
18323;BME280;9287;49.456;11.064;2024-02-14T03:53:29;98590.59;;;2.73;100.00
18323;BME280;9287;49.456;11.064;2024-02-14T03:55:58;98593.00;;;2.74;100.00
18323;BME280;9287;49.456;11.064;2024-02-14T03:58:25;98594.53;;;2.80;100.00
18323;BME280;9287;49.456;11.064;2024-02-14T04:00:53;98600.44;;;2.83;100.00
18323;BME280;9287;49.456;11.064;2024-02-14T04:03:21;98594.59;;;2.75;100.00
18323;BME280;9287;49.456;11.064;2024-02-14T04:05:49;98595.16;;;2.72;100.00
18323;BME280;9287;49.456;11.064;2024-02-14T04:08:18;98600.09;;;2.65;100.00
18323;BME280;9287;49.456;11.064;2024-02-14T04:10:46;98593.09;;;2.64;100.00
18323;BME280;9287;49.456;11.064;2024-02-14T04:13:16;98595.25;;;2.62;100.00
18323;BME280;9287;49.456;11.064;2024-02-14T04:15:44;98594.81;;;2.55;100.00
18323;BME280;9287;49.456;11.064;2024-02-14T04:18:12;98593.28;;;2.44;100.00
18323;BME280;9287;49.456;11.064;2024-02-14T04:20:41;98592.97;;;2.51;100.00
18323;BME280;9287;49.456;11.064;2024-02-14T04:23:10;98586.75;;;2.50;100.00
18323;BME280;9287;49.456;11.064;2024-02-14T04:25:39;98579.25;;;2.47;100.00
18323;BME280;9287;49.456;11.064;2024-02-14T04:28:07;98580.25;;;2.56;100.00
18323;BME280;9287;49.456;11.064;2024-02-14T04:30:38;98576.34;;;2.67;100.00
18323;BME280;9287;49.456;11.064;2024-02-14T04:33:08;98585.06;;;2.83;100.00
18323;BME280;9287;49.456;11.064;2024-02-14T04:35:40;98594.00;;;2.78;100.00
18323;BME280;9287;49.456;11.064;2024-02-14T04:38:08;98592.53;;;2.67;100.00
18323;BME280;9287;49.456;11.064;2024-02-14T04:40:36;98586.38;;;2.86;100.00
18323;BME280;9287;49.456;11.064;2024-02-14T04:43:06;98591.84;;;2.80;100.00
18323;BME280;9287;49.456;11.064;2024-02-14T04:45:34;98594.34;;;2.96;100.00
18323;BME280;9287;49.456;11.064;2024-02-14T04:48:02;98596.66;;;2.84;100.00
18323;BME280;9287;49.456;11.064;2024-02-14T04:50:30;98601.34;;;2.97;100.00
18323;BME280;9287;49.456;11.064;2024-02-14T04:52:58;98607.69;;;3.11;100.00
18323;BME280;9287;49.456;11.064;2024-02-14T04:55:26;98609.41;;;3.02;100.00
18323;BME280;9287;49.456;11.064;2024-02-14T04:57:55;98610.88;;;3.13;100.00
18323;BME280;9287;49.456;11.064;2024-02-14T05:00:24;98599.97;;;3.23;100.00
18323;BME280;9287;49.456;11.064;2024-02-14T05:02:52;98601.34;;;3.21;100.00
18323;BME280;9287;49.456;11.064;2024-02-14T05:05:20;98608.13;;;3.18;100.00
18323;BME280;9287;49.456;11.064;2024-02-14T05:07:48;98614.31;;;3.19;100.00
18323;BME280;9287;49.456;11.064;2024-02-14T05:10:16;98619.50;;;3.15;100.00
18323;BME280;9287;49.456;11.064;2024-02-14T05:12:44;98614.38;;;3.13;100.00
18323;BME280;9287;49.456;11.064;2024-02-14T05:15:12;98610.84;;;3.37;100.00
18323;BME280;9287;49.456;11.064;2024-02-14T05:17:43;98607.56;;;3.21;100.00
18323;BME280;9287;49.456;11.064;2024-02-14T05:20:11;98606.59;;;3.31;100.00
18323;BME280;9287;49.456;11.064;2024-02-14T05:22:39;98611.00;;;3.27;100.00
18323;BME280;9287;49.456;11.064;2024-02-14T05:25:08;98618.91;;;3.18;100.00
18323;BME280;9287;49.456;11.064;2024-02-14T05:27:36;98618.41;;;3.16;100.00
18323;BME280;9287;49.456;11.064;2024-02-14T05:30:05;98615.69;;;3.16;100.00
18323;BME280;9287;49.456;11.064;2024-02-14T05:32:33;98620.78;;;3.41;100.00
18323;BME280;9287;49.456;11.064;2024-02-14T05:35:03;98623.59;;;3.31;100.00
18323;BME280;9287;49.456;11.064;2024-02-14T05:37:32;98627.06;;;3.37;100.00
18323;BME280;9287;49.456;11.064;2024-02-14T05:40:05;98630.69;;;3.27;100.00
18323;BME280;9287;49.456;11.064;2024-02-14T05:42:34;98628.44;;;3.34;100.00
18323;BME280;9287;49.456;11.064;2024-02-14T05:45:02;98620.72;;;3.46;100.00
18323;BME280;9287;49.456;11.064;2024-02-14T05:47:30;98621.63;;;3.61;100.00
18323;BME280;9287;49.456;11.064;2024-02-14T05:49:58;98623.81;;;3.59;100.00
18323;BME280;9287;49.456;11.064;2024-02-14T05:52:28;98623.22;;;3.62;100.00
18323;BME280;9287;49.456;11.064;2024-02-14T05:54:55;98633.66;;;3.68;100.00
18323;BME280;9287;49.456;11.064;2024-02-14T05:57:23;98629.06;;;3.69;100.00
18323;BME280;9287;49.456;11.064;2024-02-14T05:59:51;98621.47;;;3.71;100.00
18323;BME280;9287;49.456;11.064;2024-02-14T06:02:19;98622.56;;;3.70;100.00
18323;BME280;9287;49.456;11.064;2024-02-14T06:04:48;98631.19;;;3.91;100.00
18323;BME280;9287;49.456;11.064;2024-02-14T06:07:15;98621.31;;;3.81;100.00
18323;BME280;9287;49.456;11.064;2024-02-14T06:09:44;98629.72;;;3.79;100.00
18323;BME280;9287;49.456;11.064;2024-02-14T06:12:12;98632.50;;;3.74;100.00
18323;BME280;9287;49.456;11.064;2024-02-14T06:14:40;98638.69;;;3.75;100.00
18323;BME280;9287;49.456;11.064;2024-02-14T06:17:08;98637.91;;;3.74;100.00
18323;BME280;9287;49.456;11.064;2024-02-14T06:19:36;98637.09;;;3.74;100.00
18323;BME280;9287;49.456;11.064;2024-02-14T06:22:06;98634.63;;;3.96;100.00
18323;BME280;9287;49.456;11.064;2024-02-14T06:24:34;98638.78;;;3.89;100.00
18323;BME280;9287;49.456;11.064;2024-02-14T06:27:04;98645.44;;;3.96;100.00
18323;BME280;9287;49.456;11.064;2024-02-14T06:29:32;98640.09;;;3.91;100.00
18323;BME280;9287;49.456;11.064;2024-02-14T06:32:00;98648.31;;;3.81;100.00
18323;BME280;9287;49.456;11.064;2024-02-14T06:34:29;98645.56;;;3.86;100.00
18323;BME280;9287;49.456;11.064;2024-02-14T06:36:57;98646.59;;;3.90;100.00
18323;BME280;9287;49.456;11.064;2024-02-14T06:39:25;98643.25;;;3.98;100.00
18323;BME280;9287;49.456;11.064;2024-02-14T06:41:53;98644.16;;;4.07;100.00
18323;BME280;9287;49.456;11.064;2024-02-14T06:44:22;98640.66;;;3.88;100.00
18323;BME280;9287;49.456;11.064;2024-02-14T06:46:50;98644.25;;;4.02;100.00
18323;BME280;9287;49.456;11.064;2024-02-14T06:49:18;98640.44;;;4.03;100.00
18323;BME280;9287;49.456;11.064;2024-02-14T06:51:46;98645.25;;;4.06;100.00
18323;BME280;9287;49.456;11.064;2024-02-14T06:54:13;98644.25;;;4.02;100.00
18323;BME280;9287;49.456;11.064;2024-02-14T06:56:43;98636.66;;;4.04;100.00
18323;BME280;9287;49.456;11.064;2024-02-14T06:59:11;98644.75;;;4.04;100.00
18323;BME280;9287;49.456;11.064;2024-02-14T07:01:40;98638.53;;;4.23;100.00
18323;BME280;9287;49.456;11.064;2024-02-14T07:04:08;98646.94;;;4.21;100.00
18323;BME280;9287;49.456;11.064;2024-02-14T07:06:36;98653.31;;;4.11;100.00
18323;BME280;9287;49.456;11.064;2024-02-14T07:09:04;98653.88;;;4.08;100.00
18323;BME280;9287;49.456;11.064;2024-02-14T07:11:32;98652.34;;;4.21;100.00
18323;BME280;9287;49.456;11.064;2024-02-14T07:14:00;98654.97;;;4.26;100.00
18323;BME280;9287;49.456;11.064;2024-02-14T07:16:29;98648.00;;;4.39;100.00
18323;BME280;9287;49.456;11.064;2024-02-14T07:18:58;98646.97;;;4.35;100.00
18323;BME280;9287;49.456;11.064;2024-02-14T07:21:26;98642.47;;;4.63;100.00
18323;BME280;9287;49.456;11.064;2024-02-14T07:23:54;98649.59;;;4.40;100.00
18323;BME280;9287;49.456;11.064;2024-02-14T07:26:22;98641.06;;;4.65;100.00
18323;BME280;9287;49.456;11.064;2024-02-14T07:28:50;98638.81;;;4.53;100.00
18323;BME280;9287;49.456;11.064;2024-02-14T07:31:18;98628.47;;;4.42;100.00
18323;BME280;9287;49.456;11.064;2024-02-14T07:33:45;98634.06;;;4.64;100.00
18323;BME280;9287;49.456;11.064;2024-02-14T07:36:16;98629.03;;;4.71;100.00
18323;BME280;9287;49.456;11.064;2024-02-14T07:38:43;98636.06;;;4.72;100.00
18323;BME280;9287;49.456;11.064;2024-02-14T07:41:11;98647.69;;;4.86;100.00
18323;BME280;9287;49.456;11.064;2024-02-14T07:43:39;98651.13;;;5.06;100.00
18323;BME280;9287;49.456;11.064;2024-02-14T07:46:07;98640.91;;;5.03;100.00
18323;BME280;9287;49.456;11.064;2024-02-14T07:48:34;98646.72;;;5.10;100.00
18323;BME280;9287;49.456;11.064;2024-02-14T07:51:07;98642.13;;;5.24;100.00
18323;BME280;9287;49.456;11.064;2024-02-14T07:53:36;98651.34;;;5.23;100.00
18323;BME280;9287;49.456;11.064;2024-02-14T07:56:04;98652.84;;;5.29;100.00
18323;BME280;9287;49.456;11.064;2024-02-14T07:58:32;98665.75;;;5.05;100.00
18323;BME280;9287;49.456;11.064;2024-02-14T08:01:00;98658.56;;;5.14;100.00
18323;BME280;9287;49.456;11.064;2024-02-14T08:03:28;98659.25;;;5.06;100.00
18323;BME280;9287;49.456;11.064;2024-02-14T08:05:56;98657.03;;;5.08;100.00
18323;BME280;9287;49.456;11.064;2024-02-14T08:08:25;98660.34;;;5.05;100.00
18323;BME280;9287;49.456;11.064;2024-02-14T08:10:55;98661.38;;;5.22;100.00
18323;BME280;9287;49.456;11.064;2024-02-14T08:13:23;98668.19;;;5.47;100.00
18323;BME280;9287;49.456;11.064;2024-02-14T08:15:51;98675.31;;;5.43;100.00
18323;BME280;9287;49.456;11.064;2024-02-14T08:18:19;98671.00;;;5.29;100.00
18323;BME280;9287;49.456;11.064;2024-02-14T08:20:47;98671.59;;;5.39;100.00
18323;BME280;9287;49.456;11.064;2024-02-14T08:23:15;98676.41;;;5.42;100.00
18323;BME280;9287;49.456;11.064;2024-02-14T08:25:43;98671.00;;;5.15;100.00
18323;BME280;9287;49.456;11.064;2024-02-14T08:28:12;98666.38;;;5.29;100.00
18323;BME280;9287;49.456;11.064;2024-02-14T08:30:40;98670.63;;;5.35;100.00
18323;BME280;9287;49.456;11.064;2024-02-14T08:33:08;98671.81;;;5.29;100.00
18323;BME280;9287;49.456;11.064;2024-02-14T08:35:37;98671.09;;;5.37;100.00
18323;BME280;9287;49.456;11.064;2024-02-14T08:38:09;98683.06;;;5.36;100.00
18323;BME280;9287;49.456;11.064;2024-02-14T08:40:37;98684.81;;;5.54;100.00
18323;BME280;9287;49.456;11.064;2024-02-14T08:43:06;98684.94;;;5.63;100.00
18323;BME280;9287;49.456;11.064;2024-02-14T08:45:35;98675.81;;;5.45;100.00
18323;BME280;9287;49.456;11.064;2024-02-14T08:48:06;98679.03;;;5.47;100.00
18323;BME280;9287;49.456;11.064;2024-02-14T08:50:34;98674.72;;;5.46;100.00
18323;BME280;9287;49.456;11.064;2024-02-14T08:53:03;98671.41;;;5.49;100.00
18323;BME280;9287;49.456;11.064;2024-02-14T08:55:31;98671.78;;;5.56;100.00
18323;BME280;9287;49.456;11.064;2024-02-14T08:58:00;98681.41;;;5.63;100.00
18323;BME280;9287;49.456;11.064;2024-02-14T09:00:28;98668.16;;;5.75;100.00
18323;BME280;9287;49.456;11.064;2024-02-14T09:02:58;98677.28;;;5.79;100.00
18323;BME280;9287;49.456;11.064;2024-02-14T09:05:26;98671.94;;;6.01;100.00
18323;BME280;9287;49.456;11.064;2024-02-14T09:07:57;98673.75;;;5.92;100.00
18323;BME280;9287;49.456;11.064;2024-02-14T09:10:25;98671.72;;;6.11;100.00
18323;BME280;9287;49.456;11.064;2024-02-14T09:12:53;98662.84;;;6.19;100.00
18323;BME280;9287;49.456;11.064;2024-02-14T09:15:20;98671.84;;;6.28;100.00
18323;BME280;9287;49.456;11.064;2024-02-14T09:17:49;98670.28;;;6.14;100.00
18323;BME280;9287;49.456;11.064;2024-02-14T09:20:20;98667.41;;;6.33;100.00
18323;BME280;9287;49.456;11.064;2024-02-14T09:22:48;98670.31;;;6.58;100.00
18323;BME280;9287;49.456;11.064;2024-02-14T09:25:16;98666.56;;;6.46;100.00
18323;BME280;9287;49.456;11.064;2024-02-14T09:27:44;98659.81;;;6.96;100.00
18323;BME280;9287;49.456;11.064;2024-02-14T09:30:13;98664.84;;;7.43;100.00
18323;BME280;9287;49.456;11.064;2024-02-14T09:32:57;98655.28;;;7.62;100.00
18323;BME280;9287;49.456;11.064;2024-02-14T09:35:27;98662.97;;;7.60;100.00
18323;BME280;9287;49.456;11.064;2024-02-14T09:37:55;98659.13;;;7.61;100.00
18323;BME280;9287;49.456;11.064;2024-02-14T09:40:22;98657.47;;;7.43;100.00
18323;BME280;9287;49.456;11.064;2024-02-14T09:42:53;98654.28;;;7.41;100.00
18323;BME280;9287;49.456;11.064;2024-02-14T09:45:25;98663.72;;;7.44;100.00
18323;BME280;9287;49.456;11.064;2024-02-14T09:47:53;98669.25;;;7.30;100.00
18323;BME280;9287;49.456;11.064;2024-02-14T09:50:23;98664.91;;;7.20;100.00
18323;BME280;9287;49.456;11.064;2024-02-14T09:52:53;98672.50;;;7.49;100.00
18323;BME280;9287;49.456;11.064;2024-02-14T09:55:23;98671.56;;;7.62;100.00
18323;BME280;9287;49.456;11.064;2024-02-14T09:57:52;98674.06;;;7.33;100.00
18323;BME280;9287;49.456;11.064;2024-02-14T10:00:22;98679.53;;;7.50;100.00
18323;BME280;9287;49.456;11.064;2024-02-14T10:02:50;98675.72;;;7.51;100.00
18323;BME280;9287;49.456;11.064;2024-02-14T10:05:18;98678.88;;;7.36;100.00
18323;BME280;9287;49.456;11.064;2024-02-14T10:07:45;98674.72;;;7.47;100.00
18323;BME280;9287;49.456;11.064;2024-02-14T10:10:15;98686.31;;;7.61;100.00
18323;BME280;9287;49.456;11.064;2024-02-14T10:12:43;98683.91;;;7.68;100.00
18323;BME280;9287;49.456;11.064;2024-02-14T10:15:11;98684.97;;;7.50;100.00
18323;BME280;9287;49.456;11.064;2024-02-14T10:17:39;98685.38;;;7.75;100.00
18323;BME280;9287;49.456;11.064;2024-02-14T10:20:09;98684.66;;;7.43;100.00
18323;BME280;9287;49.456;11.064;2024-02-14T10:22:38;98688.28;;;7.78;100.00
18323;BME280;9287;49.456;11.064;2024-02-14T10:25:06;98678.22;;;7.96;100.00
18323;BME280;9287;49.456;11.064;2024-02-14T10:27:38;98679.03;;;8.05;100.00
18323;BME280;9287;49.456;11.064;2024-02-14T10:30:08;98684.00;;;8.20;100.00
18323;BME280;9287;49.456;11.064;2024-02-14T10:32:37;98680.19;;;8.47;100.00
18323;BME280;9287;49.456;11.064;2024-02-14T10:35:06;98685.56;;;8.90;100.00
18323;BME280;9287;49.456;11.064;2024-02-14T10:37:35;98678.72;;;8.67;100.00
18323;BME280;9287;49.456;11.064;2024-02-14T10:40:05;98675.47;;;8.99;100.00
18323;BME280;9287;49.456;11.064;2024-02-14T10:42:33;98680.75;;;9.42;100.00
18323;BME280;9287;49.456;11.064;2024-02-14T10:45:03;98671.41;;;9.82;100.00
18323;BME280;9287;49.456;11.064;2024-02-14T10:47:34;98671.69;;;9.59;100.00
18323;BME280;9287;49.456;11.064;2024-02-14T10:50:04;98680.19;;;9.58;100.00
18323;BME280;9287;49.456;11.064;2024-02-14T10:52:35;98674.31;;;9.47;100.00
18323;BME280;9287;49.456;11.064;2024-02-14T10:55:04;98666.94;;;9.48;100.00
18323;BME280;9287;49.456;11.064;2024-02-14T10:57:32;98668.47;;;9.57;100.00
18323;BME280;9287;49.456;11.064;2024-02-14T11:00:05;98664.81;;;9.53;100.00
18323;BME280;9287;49.456;11.064;2024-02-14T11:02:34;98673.94;;;9.57;100.00
18323;BME280;9287;49.456;11.064;2024-02-14T11:05:04;98672.53;;;9.51;100.00
18323;BME280;9287;49.456;11.064;2024-02-14T11:07:33;98662.78;;;9.41;100.00
18323;BME280;9287;49.456;11.064;2024-02-14T11:10:04;98672.41;;;9.39;100.00
18323;BME280;9287;49.456;11.064;2024-02-14T11:12:34;98660.59;;;9.35;100.00
18323;BME280;9287;49.456;11.064;2024-02-14T11:15:11;98675.13;;;9.39;100.00
18323;BME280;9287;49.456;11.064;2024-02-14T11:17:39;98666.78;;;9.44;100.00
18323;BME280;9287;49.456;11.064;2024-02-14T11:20:16;98669.81;;;9.51;100.00
18323;BME280;9287;49.456;11.064;2024-02-14T11:22:53;98672.31;;;9.56;100.00
18323;BME280;9287;49.456;11.064;2024-02-14T11:25:31;98670.38;;;9.65;100.00
18323;BME280;9287;49.456;11.064;2024-02-14T11:28:12;98667.25;;;9.75;100.00
18323;BME280;9287;49.456;11.064;2024-02-14T11:30:42;98667.31;;;9.88;100.00
18323;BME280;9287;49.456;11.064;2024-02-14T11:33:16;98666.31;;;10.01;100.00
18323;BME280;9287;49.456;11.064;2024-02-14T11:35:46;98660.56;;;10.15;100.00
18323;BME280;9287;49.456;11.064;2024-02-14T11:38:14;98655.38;;;10.42;100.00
18323;BME280;9287;49.456;11.064;2024-02-14T11:40:42;98644.56;;;10.67;100.00
18323;BME280;9287;49.456;11.064;2024-02-14T11:43:11;98629.09;;;10.71;100.00
18323;BME280;9287;49.456;11.064;2024-02-14T11:45:40;98632.41;;;10.76;100.00
18323;BME280;9287;49.456;11.064;2024-02-14T11:48:11;98634.34;;;10.76;100.00
18323;BME280;9287;49.456;11.064;2024-02-14T11:50:40;98643.72;;;10.99;100.00
18323;BME280;9287;49.456;11.064;2024-02-14T11:53:10;98642.34;;;10.93;100.00
18323;BME280;9287;49.456;11.064;2024-02-14T11:55:38;98640.66;;;10.89;100.00
18323;BME280;9287;49.456;11.064;2024-02-14T11:58:07;98640.06;;;10.95;100.00
18323;BME280;9287;49.456;11.064;2024-02-14T12:00:37;98635.34;;;11.16;100.00
18323;BME280;9287;49.456;11.064;2024-02-14T12:03:07;98629.44;;;11.51;100.00
18323;BME280;9287;49.456;11.064;2024-02-14T12:05:38;98633.41;;;11.29;100.00
18323;BME280;9287;49.456;11.064;2024-02-14T12:08:06;98643.31;;;11.22;100.00
18323;BME280;9287;49.456;11.064;2024-02-14T12:10:36;98648.75;;;10.97;100.00
18323;BME280;9287;49.456;11.064;2024-02-14T12:13:07;98643.34;;;10.76;100.00
18323;BME280;9287;49.456;11.064;2024-02-14T12:15:39;98639.34;;;10.74;100.00
18323;BME280;9287;49.456;11.064;2024-02-14T12:18:08;98638.91;;;10.72;100.00
18323;BME280;9287;49.456;11.064;2024-02-14T12:20:38;98639.09;;;10.67;100.00
18323;BME280;9287;49.456;11.064;2024-02-14T12:23:06;98630.88;;;10.55;100.00
18323;BME280;9287;49.456;11.064;2024-02-14T12:25:34;98634.94;;;10.49;100.00
18323;BME280;9287;49.456;11.064;2024-02-14T12:28:01;98629.00;;;10.46;100.00
18323;BME280;9287;49.456;11.064;2024-02-14T12:30:42;98633.16;;;10.53;100.00
18323;BME280;9287;49.456;11.064;2024-02-14T12:33:12;98635.41;;;10.51;100.00
18323;BME280;9287;49.456;11.064;2024-02-14T12:35:44;98626.41;;;10.50;100.00
18323;BME280;9287;49.456;11.064;2024-02-14T12:38:15;98632.47;;;10.56;100.00
18323;BME280;9287;49.456;11.064;2024-02-14T12:40:43;98636.56;;;10.62;100.00
18323;BME280;9287;49.456;11.064;2024-02-14T12:43:12;98631.38;;;10.69;100.00
18323;BME280;9287;49.456;11.064;2024-02-14T12:45:41;98639.25;;;10.70;100.00
18323;BME280;9287;49.456;11.064;2024-02-14T12:48:10;98643.91;;;10.70;100.00
18323;BME280;9287;49.456;11.064;2024-02-14T12:50:40;98640.84;;;10.71;100.00
18323;BME280;9287;49.456;11.064;2024-02-14T12:53:15;98642.31;;;10.69;100.00
18323;BME280;9287;49.456;11.064;2024-02-14T12:55:43;98653.06;;;10.86;100.00
18323;BME280;9287;49.456;11.064;2024-02-14T12:58:11;98646.84;;;10.65;100.00
18323;BME280;9287;49.456;11.064;2024-02-14T13:00:39;98647.19;;;10.42;100.00
18323;BME280;9287;49.456;11.064;2024-02-14T13:03:07;98646.06;;;10.43;100.00
18323;BME280;9287;49.456;11.064;2024-02-14T13:05:39;98648.88;;;10.56;100.00
18323;BME280;9287;49.456;11.064;2024-02-14T13:08:07;98646.13;;;10.56;100.00